createdAt,value
2023-03-29T00:00:56.437Z,62.21
2023-03-29T00:01:56.422Z,62.86
2023-03-29T00:02:56.643Z,63.15
2023-03-29T00:03:56.479Z,63.58
2023-03-29T00:04:56.334Z,63.67
2023-03-29T00:05:56.348Z,63.82
2023-03-29T00:06:56.324Z,64.01
2023-03-29T00:07:56.291Z,64.31
2023-03-29T00:08:56.327Z,64.91
2023-03-29T00:09:56.275Z,65.52
2023-03-29T00:10:56.275Z,66.67
2023-03-29T00:11:56.249Z,67.63
2023-03-29T00:12:56.244Z,68.63
2023-03-29T00:13:56.251Z,70.30
2023-03-29T00:14:56.228Z,71.99
2023-03-29T00:15:56.217Z,73.96
2023-03-29T00:16:56.234Z,75.77
2023-03-29T00:17:56.274Z,76.60
2023-03-29T00:18:56.159Z,77.45
2023-03-29T00:19:56.164Z,79.29
2023-03-29T00:20:56.130Z,81.45
2023-03-29T00:21:56.131Z,83.89
2023-03-29T00:22:56.107Z,85.52
2023-03-29T00:23:56.088Z,88.04
2023-03-29T00:24:56.093Z,90.03
2023-03-29T00:25:56.090Z,90.61
2023-03-29T00:26:56.036Z,91.60
2023-03-29T00:27:56.037Z,92.82
2023-03-29T00:28:56.015Z,94.82
2023-03-29T00:29:56.079Z,94.82
2023-03-29T00:30:56.024Z,94.26
2023-03-29T00:31:56.096Z,95.66
2023-03-29T00:32:56.057Z,98.07
2023-03-29T00:33:55.971Z,99.52
2023-03-29T00:34:55.977Z,101.27
2023-03-29T00:35:55.998Z,101.82
2023-03-29T00:36:55.911Z,102.45
2023-03-29T00:37:55.922Z,105.48
2023-03-29T00:38:55.905Z,107.44
2023-03-29T00:39:55.890Z,108.06
2023-03-29T00:40:55.865Z,108.98
2023-03-29T00:41:55.896Z,110.20
2023-03-29T00:42:55.850Z,110.27
2023-03-29T00:43:55.889Z,110.93
2023-03-29T00:44:55.839Z,111.89
2023-03-29T00:45:55.962Z,111.15
2023-03-29T00:46:55.813Z,111.96
2023-03-29T00:47:55.868Z,112.79
2023-03-29T00:48:55.799Z,114.41
2023-03-29T00:49:55.792Z,116.48
2023-03-29T00:50:55.763Z,119.64
2023-03-29T00:51:55.754Z,123.25
2023-03-29T00:52:55.728Z,126.70
2023-03-29T00:53:55.701Z,129.95
2023-03-29T00:54:55.692Z,131.79
2023-03-29T00:55:55.699Z,132.41
2023-03-29T00:56:55.681Z,136.29
2023-03-29T00:57:55.711Z,136.73
2023-03-29T00:58:55.632Z,137.75
2023-03-29T00:59:55.664Z,139.35
2023-03-29T01:00:55.653Z,140.05
2023-03-29T01:01:55.647Z,140.99
2023-03-29T01:02:55.680Z,140.40
2023-03-29T01:03:55.643Z,140.64
2023-03-29T01:04:55.577Z,138.66
2023-03-29T01:05:55.570Z,136.73
2023-03-29T01:06:55.654Z,135.41
2023-03-29T01:07:55.559Z,131.37
2023-03-29T01:08:55.538Z,128.55
2023-03-29T01:09:55.513Z,126.03
2023-03-29T01:10:55.517Z,122.35
2023-03-29T01:11:55.505Z,120.76
2023-03-29T01:12:55.478Z,120.33
2023-03-29T01:13:55.520Z,120.33
2023-03-29T01:14:55.477Z,120.07
2023-03-29T01:15:55.498Z,122.44
2023-03-29T01:16:55.467Z,123.80
2023-03-29T01:17:55.444Z,125.37
2023-03-29T01:18:55.408Z,128.25
2023-03-29T01:19:55.387Z,130.05
2023-03-29T01:20:55.392Z,131.58
2023-03-29T01:21:55.372Z,133.47
2023-03-29T01:22:55.327Z,133.89
2023-03-29T01:23:55.339Z,135.30
2023-03-29T01:24:55.325Z,136.73
2023-03-29T01:25:55.351Z,137.41
2023-03-29T01:26:55.420Z,138.09
2023-03-29T01:27:55.320Z,137.52
2023-03-29T01:28:55.288Z,137.75
2023-03-29T01:29:55.275Z,137.29
2023-03-29T01:30:55.260Z,137.86
2023-03-29T01:31:55.278Z,137.52
2023-03-29T01:32:55.285Z,135.96
2023-03-29T01:33:55.219Z,134.32
2023-03-29T01:34:55.195Z,133.36
2023-03-29T01:35:55.223Z,131.06
2023-03-29T01:36:55.196Z,130.15
2023-03-29T01:37:55.187Z,128.75
2023-03-29T01:38:55.144Z,128.75
2023-03-29T01:39:55.143Z,127.76
2023-03-29T01:40:55.129Z,127.86
2023-03-29T01:41:55.122Z,127.28
2023-03-29T01:42:55.099Z,127.18
2023-03-29T01:43:55.069Z,127.38
2023-03-29T01:44:55.068Z,127.18
2023-03-29T01:45:55.068Z,126.22
2023-03-29T01:46:55.035Z,126.42
2023-03-29T01:47:55.077Z,125.85
2023-03-29T01:48:55.009Z,125.56
2023-03-29T01:49:55.014Z,125.09
2023-03-29T01:50:54.985Z,124.81
2023-03-29T01:51:54.984Z,124.44
2023-03-29T01:52:54.986Z,124.91
2023-03-29T01:53:54.965Z,124.07
2023-03-29T01:54:54.970Z,123.07
2023-03-29T01:55:54.940Z,120.94
2023-03-29T01:56:54.981Z,118.79
2023-03-29T01:57:54.911Z,116.16
2023-03-29T01:58:54.909Z,112.34
2023-03-29T01:59:54.892Z,109.76
2023-03-29T02:00:54.920Z,106.69
2023-03-29T02:01:54.912Z,103.97
2023-03-29T02:02:54.943Z,100.60
2023-03-29T02:03:54.826Z,98.64
2023-03-29T02:04:54.830Z,96.26
2023-03-29T02:05:54.821Z,94.58
2023-03-29T02:06:54.799Z,94.50
2023-03-29T02:07:54.788Z,92.92
2023-03-29T02:08:54.760Z,90.51
2023-03-29T02:09:54.768Z,88.88
2023-03-29T02:10:54.748Z,87.67
2023-03-29T02:11:54.729Z,86.67
2023-03-29T02:12:54.725Z,85.61
2023-03-29T02:13:54.712Z,85.61
2023-03-29T02:14:54.693Z,84.74
2023-03-29T02:15:54.748Z,84.49
2023-03-29T02:16:54.677Z,84.15
2023-03-29T02:17:54.730Z,83.14
2023-03-29T02:18:54.633Z,83.06
2023-03-29T02:19:54.615Z,82.57
2023-03-29T02:20:54.646Z,82.49
2023-03-29T02:21:54.589Z,82.49
2023-03-29T02:22:54.602Z,82.65
2023-03-29T02:23:54.579Z,83.64
2023-03-29T02:24:54.579Z,83.56
2023-03-29T02:25:54.598Z,84.57
2023-03-29T02:26:54.523Z,86.23
2023-03-29T02:27:54.535Z,87.58
2023-03-29T02:28:54.524Z,88.22
2023-03-29T02:29:54.488Z,89.16
2023-03-29T02:30:54.569Z,88.88
2023-03-29T02:31:54.476Z,89.74
2023-03-29T02:32:54.458Z,90.42
2023-03-29T02:33:54.438Z,90.71
2023-03-29T02:34:54.437Z,91.40
2023-03-29T02:35:54.493Z,91.50
2023-03-29T02:36:54.442Z,91.50
2023-03-29T02:37:54.426Z,91.50
2023-03-29T02:38:54.401Z,91.30
2023-03-29T02:39:54.387Z,91.60
2023-03-29T02:40:54.359Z,91.90
2023-03-29T02:41:54.360Z,92.21
2023-03-29T02:42:54.331Z,93.03
2023-03-29T02:43:54.337Z,93.44
2023-03-29T02:44:54.322Z,94.39
2023-03-29T02:45:54.338Z,93.57
2023-03-29T02:46:54.349Z,94.53
2023-03-29T02:47:54.361Z,94.95
2023-03-29T02:48:54.250Z,95.50
2023-03-29T02:49:54.263Z,95.50
2023-03-29T02:50:54.254Z,96.60
2023-03-29T02:51:54.250Z,97.10
2023-03-29T02:52:54.233Z,98.76
2023-03-29T02:53:54.246Z,98.59
2023-03-29T02:54:54.192Z,98.53
2023-03-29T02:55:54.214Z,99.05
2023-03-29T02:56:54.174Z,97.44
2023-03-29T02:57:54.147Z,96.76
2023-03-29T02:58:54.163Z,94.90
2023-03-29T02:59:54.151Z,94.58
2023-03-29T03:00:54.129Z,94.31
2023-03-29T03:01:54.098Z,93.94
2023-03-29T03:02:54.139Z,94.42
2023-03-29T03:03:54.242Z,95.06
2023-03-29T03:04:54.073Z,95.55
2023-03-29T03:05:54.043Z,95.93
2023-03-29T03:06:54.049Z,95.71
2023-03-29T03:07:54.021Z,95.99
2023-03-29T03:08:54.044Z,96.21
2023-03-29T03:09:54.144Z,95.82
2023-03-29T03:10:53.991Z,97.38
2023-03-29T03:11:53.990Z,97.38
2023-03-29T03:12:53.969Z,96.38
2023-03-29T03:13:53.939Z,95.01
2023-03-29T03:14:53.963Z,94.05
2023-03-29T03:15:53.996Z,93.73
2023-03-29T03:16:53.894Z,95.46
2023-03-29T03:17:54.005Z,95.36
2023-03-29T03:18:53.893Z,95.36
2023-03-29T03:19:53.878Z,94.92
2023-03-29T03:20:53.860Z,95.03
2023-03-29T03:21:53.844Z,95.46
2023-03-29T03:22:53.847Z,94.15
2023-03-29T03:23:53.810Z,93.68
2023-03-29T03:24:53.815Z,94.37
2023-03-29T03:25:53.816Z,94.58
2023-03-29T03:26:53.789Z,94.53
2023-03-29T03:27:53.782Z,95.12
2023-03-29T03:28:53.752Z,96.26
2023-03-29T03:29:53.758Z,95.93
2023-03-29T03:30:53.735Z,96.26
2023-03-29T03:31:54.264Z,96.54
2023-03-29T03:32:53.756Z,97.21
2023-03-29T03:33:53.685Z,98.36
2023-03-29T03:34:53.690Z,99.35
2023-03-29T03:35:53.670Z,100.66
2023-03-29T03:36:53.661Z,102.26
2023-03-29T03:37:53.621Z,103.20
2023-03-29T03:38:53.621Z,103.27
2023-03-29T03:39:53.619Z,104.43
2023-03-29T03:40:53.606Z,105.01
2023-03-29T03:41:53.580Z,106.08
2023-03-29T03:42:53.591Z,106.28
2023-03-29T03:43:53.558Z,107.17
2023-03-29T03:44:53.619Z,107.65
2023-03-29T03:45:53.555Z,107.79
2023-03-29T03:46:53.537Z,107.03
2023-03-29T03:47:53.586Z,106.42
2023-03-29T03:48:53.522Z,107.58
2023-03-29T03:49:53.499Z,108.41
2023-03-29T03:50:53.475Z,108.69
2023-03-29T03:51:53.442Z,109.76
2023-03-29T03:52:53.476Z,110.63
2023-03-29T03:53:53.416Z,111.52
2023-03-29T03:54:53.421Z,112.95
2023-03-29T03:55:53.384Z,113.18
2023-03-29T03:56:53.418Z,114.18
2023-03-29T03:57:53.408Z,115.12
2023-03-29T03:58:53.383Z,116.89
2023-03-29T03:59:53.369Z,118.21
2023-03-29T04:00:53.336Z,120.68
2023-03-29T04:01:53.328Z,121.73
2023-03-29T04:02:53.355Z,123.25
2023-03-29T04:03:53.424Z,124.72
2023-03-29T04:04:53.306Z,125.66
2023-03-29T04:05:53.268Z,126.03
2023-03-29T04:06:53.291Z,127.09
2023-03-29T04:07:53.258Z,127.38
2023-03-29T04:08:53.255Z,128.55
2023-03-29T04:09:53.266Z,129.34
2023-03-29T04:10:53.213Z,130.45
2023-03-29T04:11:53.223Z,131.58
2023-03-29T04:12:53.197Z,131.17
2023-03-29T04:13:53.163Z,131.37
2023-03-29T04:14:53.186Z,131.58
2023-03-29T04:15:53.211Z,132.10
2023-03-29T04:16:53.134Z,131.37
2023-03-29T04:17:53.203Z,131.06
2023-03-29T04:18:53.161Z,129.95
2023-03-29T04:19:53.089Z,130.65
2023-03-29T04:20:53.115Z,130.25
2023-03-29T04:21:53.101Z,130.15
2023-03-29T04:22:53.075Z,130.55
2023-03-29T04:23:53.083Z,129.84
2023-03-29T04:24:53.037Z,130.15
2023-03-29T04:25:53.011Z,128.75
2023-03-29T04:26:53.039Z,127.47
2023-03-29T04:27:52.994Z,125.85
2023-03-29T04:28:52.992Z,124.17
2023-03-29T04:29:52.987Z,122.44
2023-03-29T04:30:53.089Z,120.76
2023-03-29T04:31:53.018Z,118.54
2023-03-29T04:32:52.983Z,116.32
2023-03-29T04:33:52.935Z,113.71
2023-03-29T04:34:52.929Z,111.44
2023-03-29T04:35:52.931Z,109.40
2023-03-29T04:36:52.892Z,109.12
2023-03-29T04:37:52.901Z,107.23
2023-03-29T04:38:52.912Z,106.69
2023-03-29T04:39:52.873Z,105.28
2023-03-29T04:40:52.997Z,103.59
2023-03-29T04:41:52.843Z,102.51
2023-03-29T04:42:52.817Z,100.96
2023-03-29T04:43:52.818Z,100.72
2023-03-29T04:44:52.841Z,100.36
2023-03-29T04:45:52.792Z,98.59
2023-03-29T04:46:52.861Z,97.67
2023-03-29T04:47:52.789Z,97.04
2023-03-29T04:48:52.759Z,95.93
2023-03-29T04:49:52.746Z,95.12
2023-03-29T04:50:52.732Z,94.79
2023-03-29T04:51:52.691Z,93.84
2023-03-29T04:52:52.697Z,94.39
2023-03-29T04:53:52.731Z,92.92
2023-03-29T04:54:52.704Z,92.00
2023-03-29T04:55:52.660Z,90.91
2023-03-29T04:56:52.691Z,89.93
2023-03-29T04:57:52.653Z,89.07
2023-03-29T04:58:52.620Z,88.60
2023-03-29T04:59:52.586Z,87.58
2023-03-29T05:00:52.655Z,86.58
2023-03-29T05:01:52.658Z,86.49
2023-03-29T05:02:52.567Z,86.05
2023-03-29T05:03:52.621Z,85.96
2023-03-29T05:04:52.550Z,85.70
2023-03-29T05:05:52.533Z,85.17
2023-03-29T05:06:52.545Z,84.92
2023-03-29T05:07:52.529Z,83.73
2023-03-29T05:08:52.549Z,82.98
2023-03-29T05:09:52.549Z,81.37
2023-03-29T05:10:52.471Z,79.89
2023-03-29T05:11:52.501Z,78.62
2023-03-29T05:12:52.473Z,79.21
2023-03-29T05:13:52.414Z,78.54
2023-03-29T05:14:52.464Z,78.54
2023-03-29T05:15:52.450Z,78.32
2023-03-29T05:16:52.420Z,78.69
2023-03-29T05:17:52.465Z,79.66
2023-03-29T05:18:52.353Z,80.20
2023-03-29T05:19:52.334Z,80.58
2023-03-29T05:20:52.325Z,81.45
2023-03-29T05:21:52.334Z,81.76
2023-03-29T05:22:52.337Z,80.43
2023-03-29T05:23:52.309Z,80.12
2023-03-29T05:24:52.341Z,80.51
2023-03-29T05:25:52.258Z,80.89
2023-03-29T05:26:52.265Z,79.29
2023-03-29T05:27:52.289Z,79.06
2023-03-29T05:28:52.281Z,79.29
2023-03-29T05:29:52.244Z,79.97
2023-03-29T05:30:52.220Z,81.21
2023-03-29T05:31:52.392Z,82.49
2023-03-29T05:32:52.213Z,83.81
2023-03-29T05:33:52.205Z,85.09
2023-03-29T05:34:52.167Z,86.40
2023-03-29T05:35:52.231Z,87.21
2023-03-29T05:36:52.143Z,88.41
2023-03-29T05:37:52.120Z,89.16
2023-03-29T05:38:52.173Z,90.42
2023-03-29T05:39:52.126Z,91.30
2023-03-29T05:40:52.104Z,92.92
2023-03-29T05:41:52.100Z,93.65
2023-03-29T05:42:52.140Z,94.82
2023-03-29T05:43:52.053Z,95.14
2023-03-29T05:44:54.497Z,94.69
2023-03-29T05:45:52.155Z,93.68
2023-03-29T05:46:52.035Z,94.00
2023-03-29T05:47:52.125Z,95.46
2023-03-29T05:48:52.041Z,94.85
2023-03-29T05:49:51.981Z,95.66
2023-03-29T05:50:52.000Z,97.55
2023-03-29T05:51:52.038Z,100.48
2023-03-29T05:52:51.964Z,102.63
2023-03-29T05:53:51.923Z,104.23
2023-03-29T05:54:51.927Z,106.55
2023-03-29T05:55:51.885Z,108.06
2023-03-29T05:56:51.993Z,109.40
2023-03-29T05:57:51.869Z,110.56
2023-03-29T05:58:53.025Z,112.34
2023-03-29T05:59:51.864Z,115.28
2023-03-29T06:00:51.908Z,117.63
2023-03-29T06:01:51.814Z,119.13
2023-03-29T06:02:51.886Z,121.64
2023-03-29T06:03:51.921Z,123.80
2023-03-29T06:04:51.817Z,126.89
2023-03-29T06:05:51.767Z,130.96
2023-03-29T06:06:51.741Z,134.00
2023-03-29T06:07:51.735Z,137.29
2023-03-29T06:08:51.704Z,138.43
2023-03-29T06:09:51.751Z,140.28
2023-03-29T06:10:51.709Z,143.16
2023-03-29T06:11:51.696Z,145.78
2023-03-29T06:12:51.683Z,148.89
2023-03-29T06:13:51.658Z,152.00
2023-03-29T06:14:51.659Z,154.24
2023-03-29T06:15:51.721Z,155.52
2023-03-29T06:16:51.680Z,156.54
2023-03-29T06:17:51.702Z,161.37
2023-03-29T06:18:51.600Z,165.02
2023-03-29T06:19:51.555Z,169.02
2023-03-29T06:20:51.546Z,172.32
2023-03-29T06:21:51.524Z,172.68
2023-03-29T06:22:51.538Z,176.87
2023-03-29T06:23:51.532Z,182.07
2023-03-29T06:24:51.511Z,186.32
2023-03-29T06:25:51.569Z,186.85
2023-03-29T06:26:51.489Z,189.00
2023-03-29T06:27:51.450Z,190.97
2023-03-29T06:28:52.379Z,190.86
2023-03-29T06:29:51.432Z,193.44
2023-03-29T06:30:51.480Z,197.14
2023-03-29T06:31:51.439Z,200.38
2023-03-29T06:32:51.420Z,202.35
2023-03-29T06:33:51.385Z,203.98
2023-03-29T06:34:51.357Z,207.58
2023-03-29T06:35:51.386Z,212.26
2023-03-29T06:36:51.345Z,211.58
2023-03-29T06:37:51.337Z,212.67
2023-03-29T06:38:51.319Z,215.88
2023-03-29T06:39:52.820Z,218.31
2023-03-29T06:40:51.313Z,222.14
2023-03-29T06:41:51.288Z,226.88
2023-03-29T06:42:51.293Z,231.02
2023-03-29T06:43:51.246Z,230.54
2023-03-29T06:44:51.230Z,230.70
2023-03-29T06:45:51.233Z,231.67
2023-03-29T06:46:51.263Z,232.16
2023-03-29T06:47:51.249Z,233.81
2023-03-29T06:48:51.189Z,235.82
2023-03-29T06:49:51.163Z,241.35
2023-03-29T06:50:51.171Z,242.95
2023-03-29T06:51:51.150Z,244.21
2023-03-29T06:52:51.127Z,246.22
2023-03-29T06:53:51.152Z,246.04
2023-03-29T06:54:51.097Z,245.12
2023-03-29T06:55:51.091Z,243.31
2023-03-29T06:56:51.127Z,246.04
2023-03-29T06:57:51.095Z,245.67
2023-03-29T06:58:51.070Z,244.21
2023-03-29T06:59:51.039Z,247.33
2023-03-29T07:00:51.051Z,248.64
2023-03-29T07:01:51.061Z,250.53
2023-03-29T07:02:51.047Z,253.42
2023-03-29T07:03:51.029Z,255.98
2023-03-29T07:04:51.126Z,259.41
2023-03-29T07:05:50.978Z,260.64
2023-03-29T07:06:50.950Z,259.82
2023-03-29T07:07:50.929Z,256.58
2023-03-29T07:08:50.915Z,259.61
2023-03-29T07:09:50.932Z,262.30
2023-03-29T07:10:50.912Z,263.98
2023-03-29T07:11:50.896Z,266.98
2023-03-29T07:12:50.900Z,272.05
2023-03-29T07:13:50.888Z,275.69
2023-03-29T07:14:50.862Z,278.96
2023-03-29T07:15:50.860Z,282.55
2023-03-29T07:16:50.814Z,287.99
2023-03-29T07:17:50.839Z,295.48
2023-03-29T07:18:50.804Z,297.62
2023-03-29T07:19:50.788Z,303.93
2023-03-29T07:20:50.791Z,303.93
2023-03-29T07:21:50.951Z,303.65
2023-03-29T07:22:50.769Z,303.93
2023-03-29T07:23:50.717Z,301.71
2023-03-29T07:24:50.743Z,298.97
2023-03-29T07:25:50.712Z,296.55
2023-03-29T07:27:03.302Z,293.64
2023-03-29T07:27:50.719Z,293.90
2023-03-29T07:28:50.699Z,293.38
2023-03-29T07:29:50.794Z,293.11
2023-03-29T07:30:50.657Z,293.64
2023-03-29T07:31:50.692Z,291.56
2023-03-29T07:32:50.715Z,287.74
2023-03-29T07:33:50.669Z,287.99
2023-03-29T07:34:50.602Z,290.02
2023-03-29T07:35:50.586Z,288.75
2023-03-29T07:36:50.573Z,285.99
2023-03-29T07:37:50.605Z,286.98
2023-03-29T07:38:50.572Z,283.28
2023-03-29T07:39:50.540Z,280.87
2023-03-29T07:40:50.513Z,276.39
2023-03-29T07:41:50.530Z,274.09
2023-03-29T07:42:50.471Z,277.55
2023-03-29T07:43:50.476Z,276.85
2023-03-29T07:44:50.458Z,280.87
2023-03-29T07:45:50.491Z,294.95
2023-03-29T07:46:50.474Z,307.34
2023-03-29T07:47:50.445Z,314.98
2023-03-29T07:48:50.429Z,323.01
2023-03-29T07:49:50.417Z,334.49
2023-03-29T07:50:50.424Z,346.10
2023-03-29T07:51:50.386Z,355.05
2023-03-29T07:52:50.393Z,362.08
2023-03-29T07:53:50.376Z,369.39
2023-03-29T07:54:50.356Z,379.22
2023-03-29T07:55:50.362Z,384.67
2023-03-29T07:56:50.316Z,393.95
2023-03-29T07:57:50.297Z,399.84
2023-03-29T07:58:50.302Z,407.14
2023-03-29T07:59:50.308Z,412.91
2023-03-29T08:00:50.248Z,421.49
2023-03-29T08:01:50.238Z,436.05
2023-03-29T08:02:50.217Z,436.33
2023-03-29T08:03:50.219Z,442.39
2023-03-29T08:04:50.231Z,452.56
2023-03-29T08:05:50.177Z,457.19
2023-03-29T08:06:50.149Z,467.41
2023-03-29T08:07:50.170Z,474.70
2023-03-29T08:08:50.134Z,477.41
2023-03-29T08:09:50.116Z,481.19
2023-03-29T08:10:50.124Z,490.71
2023-03-29T08:11:50.097Z,497.27
2023-03-29T08:12:50.090Z,498.76
2023-03-29T08:13:50.074Z,505.15
2023-03-29T08:14:50.070Z,509.00
2023-03-29T08:15:50.093Z,512.90
2023-03-29T08:16:50.057Z,513.68
2023-03-29T08:17:50.075Z,516.46
2023-03-29T08:18:50.040Z,516.86
2023-03-29T08:19:51.034Z,522.91
2023-03-29T08:20:49.978Z,527.03
2023-03-29T08:21:49.958Z,525.38
2023-03-29T08:22:49.948Z,531.21
2023-03-29T08:23:49.938Z,542.41
2023-03-29T08:24:49.919Z,546.39
2023-03-29T08:25:49.929Z,555.46
2023-03-29T08:26:49.908Z,563.88
2023-03-29T08:27:49.904Z,569.64
2023-03-29T08:28:49.933Z,575.03
2023-03-29T08:29:49.860Z,573.06
2023-03-29T08:30:49.921Z,574.53
2023-03-29T08:31:49.858Z,579.01
2023-03-29T08:32:52.147Z,582.03
2023-03-29T08:33:49.844Z,587.65
2023-03-29T08:34:49.813Z,589.20
2023-03-29T08:35:49.824Z,589.20
2023-03-29T08:36:49.815Z,594.43
2023-03-29T08:37:49.782Z,597.62
2023-03-29T08:38:49.731Z,591.80
2023-03-29T08:39:49.753Z,598.15
2023-03-29T08:40:49.743Z,602.46
2023-03-29T08:41:49.712Z,612.38
2023-03-29T08:42:49.698Z,618.03
2023-03-29T08:43:49.705Z,631.44
2023-03-29T08:44:49.664Z,645.45
2023-03-29T08:45:51.047Z,653.01
2023-03-29T08:46:49.741Z,660.74
2023-03-29T08:47:49.683Z,664.02
2023-03-29T08:48:49.656Z,668.66
2023-03-29T08:49:49.609Z,675.41
2023-03-29T08:50:49.587Z,692.17
2023-03-29T08:51:49.602Z,702.34
2023-03-29T08:52:49.555Z,715.86
2023-03-29T08:53:49.547Z,725.17
2023-03-29T08:54:49.550Z,741.23
2023-03-29T08:55:49.522Z,755.35
2023-03-29T08:56:49.537Z,759.64
2023-03-29T08:57:49.505Z,770.56
2023-03-29T08:58:49.474Z,775.91
2023-03-29T08:59:49.477Z,787.31
2023-03-29T09:00:49.492Z,788.70
2023-03-29T09:01:49.463Z,792.43
2023-03-29T09:02:49.513Z,809.18
2023-03-29T09:03:49.499Z,819.07
2023-03-29T09:04:49.413Z,826.14
2023-03-29T09:05:49.406Z,844.89
2023-03-29T09:06:49.366Z,861.18
2023-03-29T09:07:49.370Z,868.44
2023-03-29T09:08:49.365Z,878.69
2023-03-29T09:09:49.365Z,890.36
2023-03-29T09:10:49.302Z,899.33
2023-03-29T09:11:49.336Z,902.36
2023-03-29T09:12:49.296Z,899.33
2023-03-29T09:13:49.286Z,903.57
2023-03-29T09:14:49.273Z,904.79
2023-03-29T09:15:49.296Z,922.23
2023-03-29T09:16:49.267Z,924.78
2023-03-29T09:17:49.803Z,926.69
2023-03-29T09:18:49.230Z,943.66
2023-03-29T09:19:49.221Z,975.97
2023-03-29T09:20:49.187Z,1004.50
2023-03-29T09:21:49.189Z,1024.46
2023-03-29T09:22:49.180Z,1050.16
2023-03-29T09:23:49.160Z,1088.55
2023-03-29T09:24:49.132Z,1092.09
2023-03-29T09:25:53.566Z,1116.67
2023-03-29T09:26:49.124Z,1122.28
2023-03-29T09:27:49.105Z,1130.80
2023-03-29T09:28:49.098Z,1127.95
2023-03-29T09:29:49.091Z,1115.74
2023-03-29T09:30:49.058Z,1111.11
2023-03-29T09:31:49.094Z,1099.26
2023-03-29T09:32:49.070Z,1079.77
2023-03-29T09:33:49.005Z,1055.12
2023-03-29T09:34:48.985Z,1047.69
2023-03-29T09:35:49.015Z,1042.80
2023-03-29T09:36:48.973Z,1052.63
2023-03-29T09:37:48.964Z,1060.13
2023-03-29T09:38:48.937Z,1083.27
2023-03-29T09:39:48.936Z,1098.36
2023-03-29T09:40:48.949Z,1116.67
2023-03-29T09:41:48.897Z,1117.60
2023-03-29T09:42:48.910Z,1126.05
2023-03-29T09:43:48.901Z,1149.23
2023-03-29T09:44:48.904Z,1168.27
2023-03-29T09:45:48.897Z,1208.30
2023-03-29T09:46:48.836Z,1228.23
2023-03-29T09:47:48.864Z,1251.17
2023-03-29T09:48:48.813Z,1300.97
2023-03-29T09:49:48.822Z,1335.99
2023-03-29T09:50:48.798Z,1382.87
2023-03-29T09:51:48.760Z,1404.61
2023-03-29T09:52:48.739Z,1404.61
2023-03-29T09:53:48.747Z,1400.21
2023-03-29T09:54:48.774Z,1388.60
2023-03-29T09:55:50.385Z,1370.14
2023-03-29T09:56:48.735Z,1360.41
2023-03-29T09:57:48.691Z,1367.35
2023-03-29T09:58:48.685Z,1375.77
2023-03-29T09:59:48.662Z,1382.87
2023-03-29T10:00:48.752Z,1388.60
2023-03-29T10:01:48.655Z,1392.93
2023-03-29T10:02:48.648Z,1428.57
2023-03-29T10:03:48.628Z,1461.29
2023-03-29T10:04:48.610Z,1485.59
2023-03-29T10:05:48.594Z,1510.71
2023-03-29T10:06:48.567Z,1507.31
2023-03-29T10:07:48.564Z,1545.56
2023-03-29T10:08:48.551Z,1592.39
2023-03-29T10:09:48.569Z,1582.05
2023-03-29T10:10:48.514Z,1588.62
2023-03-29T10:11:48.535Z,1597.14
2023-03-29T10:12:48.497Z,1597.14
2023-03-29T10:13:48.479Z,1590.50
2023-03-29T10:14:48.651Z,1563.59
2023-03-29T10:15:48.443Z,1554.52
2023-03-29T10:16:48.465Z,1520.14
2023-03-29T10:17:48.490Z,1512.42
2023-03-29T10:18:48.427Z,1503.93
2023-03-29T10:19:48.394Z,1518.41
2023-03-29T10:20:48.393Z,1543.78
2023-03-29T10:21:48.365Z,1573.69
2023-03-29T10:22:48.362Z,1578.33
2023-03-29T10:23:48.345Z,1622.28
2023-03-29T10:24:48.321Z,1598.09
2023-03-29T10:25:48.342Z,1562.68
2023-03-29T10:26:48.295Z,1532.30
2023-03-29T10:27:48.328Z,1510.71
2023-03-29T10:28:48.273Z,1527.94
2023-03-29T10:29:48.291Z,1533.18
2023-03-29T10:30:48.254Z,1521.00
2023-03-29T10:31:48.256Z,1501.40
2023-03-29T10:32:48.287Z,1490.55
2023-03-29T10:33:48.251Z,1477.40
2023-03-29T10:34:48.199Z,1509.01
2023-03-29T10:35:48.236Z,1545.56
2023-03-29T10:36:48.195Z,1548.24
2023-03-29T10:37:48.163Z,1572.77
2023-03-29T10:38:48.152Z,1563.59
2023-03-29T10:39:48.143Z,1548.24
2023-03-29T10:40:48.136Z,1533.18
2023-03-29T10:41:48.107Z,1499.72
2023-03-29T10:42:48.092Z,1502.24
2023-03-29T10:43:48.095Z,1475.77
2023-03-29T10:44:48.088Z,1502.24
2023-03-29T10:45:48.096Z,1511.56
2023-03-29T10:46:48.081Z,1559.95
2023-03-29T10:47:48.074Z,1624.24
2023-03-29T10:48:48.039Z,1663.56
2023-03-29T10:49:48.187Z,1697.28
2023-03-29T10:50:48.029Z,1698.35
2023-03-29T10:51:47.976Z,1679.20
2023-03-29T10:52:47.974Z,1640.15
2023-03-29T10:53:47.966Z,1601.91
2023-03-29T10:54:47.944Z,1582.99
2023-03-29T10:55:47.957Z,1553.62
2023-03-29T10:56:47.962Z,1541.11
2023-03-29T10:57:47.940Z,1528.81
2023-03-29T10:58:47.903Z,1499.72
2023-03-29T10:59:47.880Z,1502.24
2023-03-29T11:00:47.866Z,1488.89
2023-03-29T11:01:47.896Z,1477.40
2023-03-29T11:02:47.891Z,1482.30
2023-03-29T11:03:47.923Z,1472.53
2023-03-29T11:04:47.813Z,1488.89
2023-03-29T11:05:47.817Z,1485.59
2023-03-29T11:06:47.780Z,1461.29
2023-03-29T11:07:47.807Z,1459.69
2023-03-29T11:08:47.781Z,1474.15
2023-03-29T11:09:47.760Z,1498.88
2023-03-29T11:10:48.961Z,1508.16
2023-03-29T11:11:47.721Z,1515.84
2023-03-29T11:12:47.717Z,1514.12
2023-03-29T11:13:47.699Z,1511.56
2023-03-29T11:14:47.662Z,1521.86
2023-03-29T11:15:47.687Z,1493.87
2023-03-29T11:16:47.641Z,1505.62
2023-03-29T11:17:47.757Z,1509.01
2023-03-29T11:18:47.632Z,1498.88
2023-03-29T11:19:47.619Z,1509.01
2023-03-29T11:20:47.593Z,1490.55
2023-03-29T11:21:47.568Z,1493.87
2023-03-29T11:22:47.591Z,1512.42
2023-03-29T11:23:47.608Z,1503.93
2023-03-29T11:24:47.536Z,1500.56
2023-03-29T11:25:47.544Z,1507.31
2023-03-29T11:26:47.538Z,1509.01
2023-03-29T11:27:47.523Z,1520.14
2023-03-29T11:28:47.494Z,1546.45
2023-03-29T11:29:47.460Z,1561.77
2023-03-29T11:30:47.731Z,1580.19
2023-03-29T11:31:47.465Z,1561.77
2023-03-29T11:32:47.512Z,1537.58
2023-03-29T11:33:47.471Z,1542.89
2023-03-29T11:34:47.417Z,1545.56
2023-03-29T11:35:47.425Z,1558.14
2023-03-29T11:36:47.473Z,1534.94
2023-03-29T11:37:47.543Z,1529.68
2023-03-29T11:38:47.459Z,1521.86
2023-03-29T11:39:47.337Z,1514.12
2023-03-29T11:40:47.421Z,1525.33
2023-03-29T11:41:47.342Z,1514.98
2023-03-29T11:42:47.308Z,1505.62
2023-03-29T11:43:47.266Z,1514.98
2023-03-29T11:44:47.250Z,1527.06
2023-03-29T11:45:47.274Z,1515.84
2023-03-29T11:46:47.266Z,1505.62
2023-03-29T11:47:47.335Z,1493.87
2023-03-29T11:48:47.212Z,1507.31
2023-03-29T11:49:47.211Z,1509.01
2023-03-29T11:50:47.191Z,1507.31
2023-03-29T11:51:47.182Z,1505.62
2023-03-29T11:52:47.184Z,1493.87
2023-03-29T11:53:47.167Z,1480.66
2023-03-29T11:54:47.131Z,1475.77
2023-03-29T11:55:47.127Z,1480.66
2023-03-29T11:56:47.143Z,1479.03
2023-03-29T11:57:47.115Z,1477.40
2023-03-29T11:58:47.089Z,1474.15
2023-03-29T11:59:47.086Z,1487.24
2023-03-29T12:00:47.073Z,1490.55
2023-03-29T12:01:47.090Z,1492.20
2023-03-29T12:02:47.232Z,1492.20
2023-03-29T12:03:47.467Z,1482.30
2023-03-29T12:04:47.051Z,1493.87
2023-03-29T12:05:47.008Z,1503.93
2023-03-29T12:06:46.965Z,1500.56
2023-03-29T12:07:46.991Z,1503.93
2023-03-29T12:08:47.033Z,1511.56
2023-03-29T12:09:46.954Z,1510.71
2023-03-29T12:10:46.945Z,1535.82
2023-03-29T12:11:46.893Z,1574.62
2023-03-29T12:12:46.890Z,1577.40
2023-03-29T12:13:46.866Z,1600.95
2023-03-29T12:14:46.874Z,1628.19
2023-03-29T12:15:46.848Z,1664.60
2023-03-29T12:16:46.900Z,1700.51
2023-03-29T12:17:46.926Z,1747.07
2023-03-29T12:18:46.895Z,1776.01
2023-03-29T12:19:46.798Z,1804.71
2023-03-29T12:20:46.773Z,1804.71
2023-03-29T12:21:46.775Z,1805.93
2023-03-29T12:22:46.792Z,1792.64
2023-03-29T12:23:46.775Z,1776.01
2023-03-29T12:24:46.740Z,1747.07
2023-03-29T12:25:46.703Z,1739.13
2023-03-29T12:26:46.742Z,1731.27
2023-03-29T12:27:46.696Z,1717.95
2023-03-29T12:28:46.699Z,1741.39